Cornelia, Iowa
Current Conditions -  °F | °C
As of 7:15 PM on Saturday 25 Oct 2014 (Local Time) from KCAV Reporting Station
Clear Clear  
Wind Chill: 52°   Ceiling: Unl
Heat Index: 52°   Visibility: 10mi
Dew Point: 36°   Wind: 6mph
Humidity: 54%   Direction: 360°N
Pressure: 30.07"   Gusts: NA
Location:  42.7038°N, 93.7195°W
Report Text: KCAV 260015Z AUTO 36005KT 10SM CLR 11/02 A3007 RMK AO2
Loading
Personal Weather Stations






























Interactive Weather Map
Tropical Storm Tracking
New forecast layout! Learn more

10-Day Weather Forecast

Advertisements
Track Severe Weather on mobile